Time;durP1;ratioP1;P1;durP2;ratioP2;P2;SDS_P1;SDS_P2;PMS_P1;PMS_P2;Temp;Humidity;BMP_temperature;BMP_pressure;BME280_temperature;BME280_humidity;BME280_pressure;Samples;Min_cycle;Max_cycle;Signal;HPM_P1;HPM_P2
2021/09/11 00:00:14;;;;;;;10.23;7.47;;;17.50;88.00;;;;;;4950426;28;20033;-67
2021/09/11 00:02:40;;;;;;;9.85;7.68;;;17.50;87.80;;;;;;4951121;28;20131;-68
2021/09/11 00:05:06;;;;;;;9.30;7.20;;;17.50;88.00;;;;;;4965212;28;20113;-68
2021/09/11 00:07:33;;;;;;;10.05;7.50;;;17.50;87.90;;;;;;4949696;29;20031;-68
2021/09/11 00:09:59;;;;;;;10.18;7.97;;;17.60;87.80;;;;;;4951613;28;20019;-68
2021/09/11 00:12:24;;;;;;;10.35;7.30;;;17.50;88.10;;;;;;4936222;28;20444;-69
2021/09/11 00:14:50;;;;;;;13.70;8.35;;;17.50;88.00;;;;;;4941032;28;20082;-68
2021/09/11 00:17:16;;;;;;;9.90;7.70;;;17.50;88.40;;;;;;4963423;28;20042;-68
2021/09/11 00:19:41;;;;;;;11.75;8.07;;;17.50;88.30;;;;;;4948106;28;20063;-68
2021/09/11 00:22:07;;;;;;;11.80;8.00;;;17.50;88.40;;;;;;4944870;28;20046;-68
2021/09/11 00:24:32;;;;;;;14.15;8.50;;;17.50;88.50;;;;;;4948263;28;20033;-68
2021/09/11 00:26:58;;;;;;;13.30;8.77;;;17.50;88.90;;;;;;4946253;28;20106;-68
2021/09/11 00:29:24;;;;;;;12.27;7.80;;;17.40;88.70;;;;;;4941917;28;20027;-68
2021/09/11 00:31:50;;;;;;;11.02;8.18;;;17.40;88.70;;;;;;4942216;28;20805;-68
2021/09/11 00:34:16;;;;;;;12.48;8.63;;;17.50;88.20;;;;;;4963531;28;20116;-68
2021/09/11 00:36:41;;;;;;;11.18;8.13;;;17.50;88.70;;;;;;4948232;29;20067;-68
2021/09/11 00:39:07;;;;;;;12.00;8.55;;;17.40;88.50;;;;;;4951404;28;20027;-68
2021/09/11 00:41:34;;;;;;;11.95;8.10;;;17.50;88.50;;;;;;4951523;29;20031;-67
2021/09/11 00:44:00;;;;;;;12.32;8.57;;;17.40;88.50;;;;;;4950961;28;20058;-68
2021/09/11 00:46:25;;;;;;;10.85;8.60;;;17.40;88.50;;;;;;4943299;28;20065;-69
2021/09/11 00:48:51;;;;;;;14.38;9.05;;;17.50;88.90;;;;;;4950492;28;20102;-68
2021/09/11 00:51:17;;;;;;;14.07;8.85;;;17.50;88.90;;;;;;4952944;28;20034;-68
2021/09/11 00:53:43;;;;;;;13.85;9.95;;;17.50;88.90;;;;;;4942237;28;20015;-68
2021/09/11 00:56:09;;;;;;;12.45;9.68;;;17.50;88.80;;;;;;4944591;28;20027;-68
2021/09/11 00:58:35;;;;;;;15.32;10.02;;;17.50;88.80;;;;;;4950653;29;20106;-68
2021/09/11 01:01:02;;;;;;;15.20;9.38;;;17.50;88.90;;;;;;4940170;28;20504;-69
2021/09/11 01:03:28;;;;;;;14.07;8.80;;;17.50;89.10;;;;;;4951515;29;20039;-68
2021/09/11 01:05:54;;;;;;;14.43;9.95;;;17.60;88.80;;;;;;4950639;28;20038;-68
2021/09/11 01:08:19;;;;;;;13.45;9.23;;;17.50;89.10;;;;;;4946593;28;20493;-68
2021/09/11 01:10:45;;;;;;;13.95;9.43;;;17.60;89.40;;;;;;4943066;28;21197;-68
2021/09/11 01:13:11;;;;;;;13.50;8.85;;;17.50;89.40;;;;;;4945148;28;20050;-68
2021/09/11 01:15:39;;;;;;;11.88;8.98;;;17.60;89.40;;;;;;4955173;29;20062;-68
2021/09/11 01:18:07;;;;;;;14.25;9.52;;;17.50;89.60;;;;;;4949399;28;20039;-68
2021/09/11 01:20:34;;;;;;;15.13;9.75;;;17.50;89.40;;;;;;4946017;28;20110;-68
2021/09/11 01:22:59;;;;;;;14.02;9.82;;;17.60;89.60;;;;;;4947399;28;20575;-68
2021/09/11 01:25:25;;;;;;;14.32;9.48;;;17.50;89.20;;;;;;4950573;28;20035;-69
2021/09/11 01:27:51;;;;;;;12.32;9.43;;;17.60;89.20;;;;;;4949435;28;20028;-68
2021/09/11 01:30:19;;;;;;;13.80;9.95;;;17.60;89.70;;;;;;4951277;28;20078;-68
2021/09/11 01:32:46;;;;;;;13.25;9.52;;;17.60;89.40;;;;;;4953331;29;20031;-68
2021/09/11 01:35:13;;;;;;;14.48;10.15;;;17.60;88.90;;;;;;4943663;29;20527;-68
2021/09/11 01:37:39;;;;;;;14.07;9.70;;;17.60;89.50;;;;;;4949876;29;20059;-68
2021/09/11 01:40:06;;;;;;;14.27;9.68;;;17.60;89.40;;;;;;4953269;28;20039;-68
2021/09/11 01:42:32;;;;;;;13.45;9.80;;;17.60;89.30;;;;;;4951491;28;20547;-67
2021/09/11 01:45:01;;;;;;;13.52;10.90;;;17.60;89.00;;;;;;4953944;28;20035;-68
2021/09/11 01:47:27;;;;;;;11.95;9.23;;;17.60;89.20;;;;;;4953887;28;20026;-68
2021/09/11 01:49:53;;;;;;;13.18;9.18;;;17.60;89.20;;;;;;4952481;29;20691;-68
2021/09/11 01:52:20;;;;;;;14.98;9.10;;;17.60;89.50;;;;;;4949337;28;20031;-68
2021/09/11 01:54:45;;;;;;;14.20;10.00;;;17.60;90.00;;;;;;4949014;28;20055;-68
2021/09/11 01:57:12;;;;;;;14.02;10.02;;;17.60;89.40;;;;;;4949593;28;20507;-68
2021/09/11 01:59:39;;;;;;;13.18;9.35;;;17.60;89.50;;;;;;4950799;28;20039;-68
2021/09/11 02:02:06;;;;;;;13.38;10.15;;;17.60;89.50;;;;;;4951668;28;20040;-68
2021/09/11 02:04:33;;;;;;;16.77;10.03;;;17.60;89.70;;;;;;4964069;28;20039;-69
2021/09/11 02:06:59;;;;;;;12.98;9.38;;;17.60;89.60;;;;;;4953622;29;20511;-70
2021/09/11 02:09:24;;;;;;;13.25;9.35;;;17.60;89.70;;;;;;4947384;28;20062;-68
2021/09/11 02:11:51;;;;;;;14.60;9.52;;;17.60;89.70;;;;;;4949923;29;20074;-68
2021/09/11 02:14:17;;;;;;;15.50;9.70;;;17.60;89.90;;;;;;4947362;28;20026;-68
2021/09/11 02:16:42;;;;;;;13.50;9.43;;;17.70;90.10;;;;;;4967205;28;20035;-68
2021/09/11 02:19:08;;;;;;;14.23;9.40;;;17.60;90.30;;;;;;4951899;28;20073;-68
2021/09/11 02:21:34;;;;;;;12.65;9.55;;;17.60;90.00;;;;;;4950085;29;20110;-67
2021/09/11 02:24:00;;;;;;;15.80;9.68;;;17.60;90.30;;;;;;4947975;28;20082;-68
2021/09/11 02:26:26;;;;;;;14.55;9.90;;;17.70;90.00;;;;;;4953651;28;20097;-68
2021/09/11 02:28:52;;;;;;;15.73;9.70;;;17.60;89.80;;;;;;4967015;28;20024;-68
2021/09/11 02:31:18;;;;;;;15.45;9.35;;;17.70;89.90;;;;;;4952977;28;20054;-68
2021/09/11 02:33:44;;;;;;;13.98;9.93;;;17.70;90.00;;;;;;4947054;28;20516;-68
2021/09/11 02:36:09;;;;;;;15.55;9.65;;;17.70;90.00;;;;;;4950472;28;20097;-68
2021/09/11 02:38:35;;;;;;;15.13;9.52;;;17.70;89.80;;;;;;4952092;28;20039;-68
2021/09/11 02:41:01;;;;;;;14.98;9.88;;;17.70;90.00;;;;;;4953389;28;20027;-68
2021/09/11 02:43:27;;;;;;;13.38;9.27;;;17.70;90.00;;;;;;4943900;28;20035;-68
2021/09/11 02:45:52;;;;;;;16.13;9.77;;;17.70;90.00;;;;;;4950736;28;20039;-68
2021/09/11 02:48:18;;;;;;;14.45;9.88;;;17.70;90.00;;;;;;4946276;28;20023;-68
2021/09/11 02:50:43;;;;;;;14.98;10.05;;;17.70;90.10;;;;;;4948535;28;20043;-68
2021/09/11 02:53:09;;;;;;;13.88;10.10;;;17.70;90.30;;;;;;4949670;28;20469;-68
2021/09/11 02:55:36;;;;;;;12.48;8.45;;;17.60;90.20;;;;;;4951596;28;20035;-68
2021/09/11 02:58:02;;;;;;;21.43;10.47;;;17.60;90.20;;;;;;4944000;28;20055;-68
2021/09/11 03:00:28;;;;;;;14.68;9.63;;;17.60;90.40;;;;;;4948378;28;20062;-68
2021/09/11 03:02:53;;;;;;;15.80;9.88;;;17.60;90.40;;;;;;4945022;28;20031;-68
2021/09/11 03:05:19;;;;;;;13.43;9.20;;;17.60;90.30;;;;;;4947439;28;20037;-68
2021/09/11 03:07:45;;;;;;;13.15;9.43;;;17.50;90.40;;;;;;4951991;28;20070;-68
2021/09/11 03:10:10;;;;;;;13.55;9.27;;;17.50;90.40;;;;;;4947242;28;20083;-68
2021/09/11 03:12:36;;;;;;;13.48;9.32;;;17.50;90.50;;;;;;4946386;28;20023;-68
2021/09/11 03:15:03;;;;;;;11.23;8.27;;;17.60;90.40;;;;;;4950187;29;20114;-68
2021/09/11 03:17:28;;;;;;;12.88;8.63;;;17.60;90.40;;;;;;4944423;28;20511;-68
2021/09/11 03:19:54;;;;;;;12.45;8.25;;;17.60;90.80;;;;;;4953014;29;20032;-68
2021/09/11 03:22:20;;;;;;;11.30;7.90;;;17.50;90.40;;;;;;4951432;29;20051;-68
2021/09/11 03:24:45;;;;;;;11.50;8.07;;;17.50;90.20;;;;;;4950060;28;20474;-68
2021/09/11 03:27:11;;;;;;;12.43;8.68;;;17.50;90.10;;;;;;4938153;28;20024;-68
2021/09/11 03:29:36;;;;;;;11.38;7.63;;;17.50;90.30;;;;;;4949862;28;20078;-68
2021/09/11 03:32:02;;;;;;;8.50;7.20;;;17.40;90.00;;;;;;4952091;28;20031;-68
2021/09/11 03:34:28;;;;;;;8.82;7.43;;;17.40;89.30;;;;;;4949510;28;20026;-68
2021/09/11 03:36:54;;;;;;;11.98;6.72;;;17.50;89.10;;;;;;4966800;28;20031;-68
2021/09/11 03:39:19;;;;;;;10.57;7.72;;;17.40;88.90;;;;;;4951201;28;20027;-68
2021/09/11 03:41:45;;;;;;;10.43;7.13;;;17.40;88.60;;;;;;4949668;29;20028;-68
2021/09/11 03:44:10;;;;;;;9.30;7.07;;;17.40;89.30;;;;;;4959299;28;20027;-68
2021/09/11 03:46:36;;;;;;;9.07;6.68;;;17.40;88.50;;;;;;4947413;28;20437;-68
2021/09/11 03:49:02;;;;;;;9.23;6.47;;;17.40;88.30;;;;;;4966242;28;20019;-68
2021/09/11 03:51:30;;;;;;;8.75;6.13;;;17.40;88.40;;;;;;4949934;28;20086;-68
2021/09/11 03:53:55;;;;;;;9.88;6.43;;;17.40;88.30;;;;;;4945654;28;20051;-68
2021/09/11 03:56:21;;;;;;;8.32;6.00;;;17.40;88.30;;;;;;4952234;28;20082;-68
2021/09/11 03:58:46;;;;;;;8.90;6.75;;;17.40;88.40;;;;;;4950163;28;20380;-68
2021/09/11 04:01:12;;;;;;;9.13;6.32;;;17.40;88.60;;;;;;4945087;28;20103;-68
2021/09/11 04:03:38;;;;;;;10.82;6.22;;;17.30;88.50;;;;;;4964352;28;20073;-68
2021/09/11 04:06:04;;;;;;;8.70;6.20;;;17.30;88.40;;;;;;4946995;28;20106;-68
2021/09/11 04:08:30;;;;;;;11.60;6.30;;;17.30;88.40;;;;;;4947750;28;20062;-68
2021/09/11 04:10:57;;;;;;;9.43;6.25;;;17.30;88.40;;;;;;4949124;29;20066;-68
2021/09/11 04:13:23;;;;;;;8.68;6.47;;;17.30;88.50;;;;;;4965825;28;20039;-68
2021/09/11 04:15:49;;;;;;;9.93;6.45;;;17.30;88.30;;;;;;4943374;29;20039;-68
2021/09/11 04:18:15;;;;;;;11.55;6.35;;;17.30;88.30;;;;;;4945020;28;20037;-68
2021/09/11 04:20:40;;;;;;;8.63;5.72;;;17.30;88.10;;;;;;4945246;28;20031;-68
2021/09/11 04:23:06;;;;;;;7.43;5.93;;;17.30;87.90;;;;;;4949819;28;20054;-68
2021/09/11 04:25:31;;;;;;;9.77;6.13;;;17.30;88.00;;;;;;4953463;28;20027;-68
2021/09/11 04:27:57;;;;;;;9.30;6.00;;;17.20;88.00;;;;;;4939309;28;20469;-68
2021/09/11 04:30:23;;;;;;;7.25;5.68;;;17.30;88.10;;;;;;4950685;28;20063;-68
2021/09/11 04:32:49;;;;;;;9.23;6.10;;;17.30;88.10;;;;;;4949494;28;20035;-68
2021/09/11 04:35:14;;;;;;;9.05;6.07;;;17.30;88.00;;;;;;4951310;28;20122;-68
2021/09/11 04:37:40;;;;;;;9.27;6.28;;;17.20;88.10;;;;;;4949330;28;20996;-68
2021/09/11 04:40:06;;;;;;;8.25;6.55;;;17.20;88.10;;;;;;4943771;28;20035;-69
2021/09/11 04:42:32;;;;;;;9.68;6.50;;;17.20;88.10;;;;;;4946429;28;20063;-68
2021/09/11 04:44:58;;;;;;;8.13;6.40;;;17.20;88.00;;;;;;4939349;28;20555;-68
2021/09/11 04:47:23;;;;;;;9.48;6.22;;;17.20;88.10;;;;;;4946868;28;20115;-70
2021/09/11 04:49:49;;;;;;;7.07;5.88;;;17.20;88.10;;;;;;4950833;29;20062;-68
2021/09/11 04:52:14;;;;;;;7.45;5.72;;;17.20;88.20;;;;;;4950895;28;20040;-68
2021/09/11 04:54:40;;;;;;;8.90;6.32;;;17.10;88.30;;;;;;4953436;28;20098;-68
2021/09/11 04:57:06;;;;;;;7.57;5.80;;;17.10;88.60;;;;;;4968741;28;20476;-68
2021/09/11 04:59:32;;;;;;;9.25;6.07;;;17.10;88.50;;;;;;4948041;28;20028;-68
2021/09/11 05:01:58;;;;;;;9.52;5.68;;;17.10;88.60;;;;;;4950848;28;20062;-68
2021/09/11 05:04:24;;;;;;;8.07;5.70;;;17.10;89.00;;;;;;4968175;28;20031;-68
2021/09/11 05:06:50;;;;;;;8.73;5.93;;;17.10;89.10;;;;;;4963263;28;20471;-68
2021/09/11 05:09:16;;;;;;;9.25;5.50;;;17.10;89.30;;;;;;4950668;28;20034;-69
2021/09/11 05:11:41;;;;;;;9.63;5.78;;;17.10;89.00;;;;;;4951136;28;20110;-68
2021/09/11 05:14:07;;;;;;;8.52;5.75;;;17.20;89.20;;;;;;4956581;28;20031;-68
2021/09/11 05:16:32;;;;;;;7.75;5.68;;;17.20;89.30;;;;;;4943587;28;20062;-68
2021/09/11 05:18:58;;;;;;;8.52;5.63;;;17.10;89.20;;;;;;4943978;28;20161;-68
2021/09/11 05:21:24;;;;;;;7.60;5.60;;;17.10;89.40;;;;;;4940669;28;20041;-68
2021/09/11 05:23:49;;;;;;;8.57;5.60;;;17.10;89.30;;;;;;4944080;28;20051;-68
2021/09/11 05:26:15;;;;;;;6.80;5.55;;;17.10;89.60;;;;;;4944989;28;20126;-68
2021/09/11 05:28:41;;;;;;;7.97;5.65;;;17.10;89.90;;;;;;4943425;28;20031;-68
2021/09/11 05:31:06;;;;;;;7.95;5.88;;;17.00;89.60;;;;;;4960953;28;20040;-68
2021/09/11 05:33:32;;;;;;;7.88;6.00;;;17.00;89.70;;;;;;4945024;28;20039;-67
2021/09/11 05:35:58;;;;;;;8.43;6.05;;;17.10;89.70;;;;;;4959060;28;20047;-67
2021/09/11 05:38:24;;;;;;;6.65;5.68;;;17.00;89.70;;;;;;4951120;28;20102;-67
2021/09/11 05:40:49;;;;;;;7.95;6.05;;;17.00;89.70;;;;;;4943126;28;20042;-68
2021/09/11 05:43:15;;;;;;;10.02;6.28;;;17.00;90.00;;;;;;4949795;28;20035;-68
2021/09/11 05:45:41;;;;;;;8.13;5.65;;;17.00;90.00;;;;;;4952832;28;20074;-68
2021/09/11 05:48:07;;;;;;;10.65;6.10;;;17.00;90.10;;;;;;4953108;28;20027;-67
2021/09/11 05:50:32;;;;;;;8.20;5.82;;;17.00;90.30;;;;;;4970643;28;20056;-68
2021/09/11 05:52:58;;;;;;;8.32;5.90;;;17.00;90.30;;;;;;4952409;28;20432;-67
2021/09/11 05:55:24;;;;;;;8.13;6.07;;;17.10;90.40;;;;;;4969700;28;20035;-68
2021/09/11 05:57:50;;;;;;;7.20;6.30;;;17.00;90.20;;;;;;4968810;28;20067;-67
2021/09/11 06:00:15;;;;;;;7.38;5.55;;;17.10;90.50;;;;;;4952855;28;20144;-67
2021/09/11 06:02:41;;;;;;;10.82;6.10;;;17.00;90.40;;;;;;4943977;28;20040;-67
2021/09/11 06:05:07;;;;;;;10.40;6.00;;;17.10;90.50;;;;;;4953848;28;20037;-67
2021/09/11 06:07:33;;;;;;;8.05;6.20;;;17.10;90.50;;;;;;4949045;28;20140;-67
2021/09/11 06:10:03;;;;;;;10.25;6.68;;;17.10;90.50;;;;;;4950705;28;20027;-67
2021/09/11 06:12:29;;;;;;;7.70;5.53;;;17.20;90.40;;;;;;4949996;29;20182;-67
2021/09/11 06:14:55;;;;;;;9.82;6.22;;;17.20;90.40;;;;;;4953905;29;20922;-67
2021/09/11 06:17:21;;;;;;;9.25;5.97;;;17.20;90.30;;;;;;4955256;28;20027;-67
2021/09/11 06:19:47;;;;;;;9.07;5.90;;;17.20;90.20;;;;;;4954035;28;20045;-67
2021/09/11 06:22:13;;;;;;;9.75;6.20;;;17.20;90.30;;;;;;4952751;28;20025;-68
2021/09/11 06:24:40;;;;;;;8.40;6.18;;;17.30;90.40;;;;;;4955098;28;20064;-68
2021/09/11 06:27:06;;;;;;;7.90;5.85;;;17.30;90.40;;;;;;4952776;28;20039;-68
2021/09/11 06:29:33;;;;;;;8.65;6.30;;;17.30;90.50;;;;;;4950182;28;20034;-68
2021/09/11 06:31:58;;;;;;;8.23;6.15;;;17.40;90.40;;;;;;4968795;28;20041;-68
2021/09/11 06:34:24;;;;;;;7.68;5.57;;;17.40;90.70;;;;;;4951155;28;20098;-68
2021/09/11 06:36:50;;;;;;;8.38;6.03;;;17.40;90.50;;;;;;4952629;28;20038;-66
2021/09/11 06:39:15;;;;;;;8.57;5.75;;;17.50;90.60;;;;;;4964397;28;20031;-68
2021/09/11 06:41:41;;;;;;;7.47;5.88;;;17.50;90.20;;;;;;4954285;29;20019;-67
2021/09/11 06:44:07;;;;;;;8.50;6.07;;;17.50;90.40;;;;;;4949235;28;20039;-67
2021/09/11 06:46:32;;;;;;;9.60;5.72;;;17.50;90.30;;;;;;4951996;28;20126;-68
2021/09/11 06:48:58;;;;;;;9.25;6.63;;;17.50;90.30;;;;;;4955179;29;20140;-68
2021/09/11 06:51:24;;;;;;;7.80;5.85;;;17.50;90.00;;;;;;4952374;28;20070;-68
2021/09/11 06:53:50;;;;;;;7.82;5.88;;;17.60;90.10;;;;;;4952553;28;20396;-67
2021/09/11 06:56:16;;;;;;;10.07;5.93;;;17.60;90.10;;;;;;4967799;28;20035;-68
2021/09/11 06:58:41;;;;;;;8.10;5.75;;;17.60;89.80;;;;;;4952175;28;20027;-68
2021/09/11 07:01:07;;;;;;;11.60;5.80;;;17.60;90.20;;;;;;4950430;28;20046;-68
2021/09/11 07:03:33;;;;;;;9.25;6.22;;;17.60;89.90;;;;;;4949353;28;20103;-68
2021/09/11 07:06:02;;;;;;;7.82;5.68;;;17.70;90.50;;;;;;4952689;28;20185;-68
2021/09/11 07:08:28;;;;;;;7.38;5.72;;;17.70;90.20;;;;;;4954667;28;20030;-68
2021/09/11 07:10:53;;;;;;;8.15;5.85;;;17.70;89.90;;;;;;4953742;28;20038;-68
2021/09/11 07:13:19;;;;;;;8.23;5.40;;;17.70;90.00;;;;;;4951467;29;20807;-68
2021/09/11 07:15:45;;;;;;;10.27;7.07;;;17.70;89.70;;;;;;4952535;28;20400;-68
2021/09/11 07:18:10;;;;;;;9.75;6.15;;;17.70;89.40;;;;;;4952581;28;20038;-68
2021/09/11 07:20:36;;;;;;;7.22;5.40;;;17.70;89.20;;;;;;4950356;28;20166;-70
2021/09/11 07:23:01;;;;;;;7.95;5.95;;;17.80;90.00;;;;;;4950224;29;20761;-67
2021/09/11 07:25:27;;;;;;;7.70;5.90;;;17.70;89.40;;;;;;4955872;28;20403;-67
2021/09/11 07:27:53;;;;;;;7.28;5.72;;;17.80;89.80;;;;;;4953517;29;20092;-68
2021/09/11 07:30:18;;;;;;;11.52;5.65;;;17.80;89.50;;;;;;4953447;28;20023;-67
2021/09/11 07:32:44;;;;;;;9.27;5.45;;;17.80;88.70;;;;;;4952102;28;20031;-68
2021/09/11 07:35:10;;;;;;;5.78;5.18;;;17.80;88.30;;;;;;4953079;28;20404;-67
2021/09/11 07:37:36;;;;;;;6.75;5.03;;;17.80;88.50;;;;;;4953896;28;20050;-67
2021/09/11 07:40:01;;;;;;;7.28;4.88;;;17.80;88.60;;;;;;4950468;28;20102;-67
2021/09/11 07:42:27;;;;;;;7.43;5.57;;;17.90;88.60;;;;;;4954071;28;20033;-68
2021/09/11 07:44:53;;;;;;;6.40;4.97;;;17.90;88.80;;;;;;4949904;29;20034;-68
2021/09/11 07:47:18;;;;;;;6.45;4.82;;;17.90;88.20;;;;;;4951385;28;20028;-68
2021/09/11 07:49:44;;;;;;;6.50;5.07;;;18.00;87.70;;;;;;4952939;28;20102;-68
2021/09/11 07:52:10;;;;;;;6.65;4.57;;;18.00;87.50;;;;;;4946978;28;20027;-69
2021/09/11 07:54:36;;;;;;;8.95;5.03;;;18.00;87.60;;;;;;4963455;28;20030;-68
2021/09/11 07:57:01;;;;;;;6.50;4.82;;;18.00;86.70;;;;;;4952644;28;20054;-68
2021/09/11 07:59:27;;;;;;;7.53;5.35;;;18.00;88.10;;;;;;4952688;28;20027;-68
2021/09/11 08:01:53;;;;;;;6.63;4.63;;;18.10;87.60;;;;;;4950967;28;20082;-68
2021/09/11 08:04:18;;;;;;;6.85;5.20;;;18.20;86.70;;;;;;4951788;28;20531;-68
2021/09/11 08:06:44;;;;;;;6.57;5.03;;;18.20;86.10;;;;;;4949685;28;20031;-68
2021/09/11 08:09:09;;;;;;;7.07;5.00;;;18.20;86.70;;;;;;4952990;28;20038;-68
2021/09/11 08:11:35;;;;;;;6.90;5.10;;;18.30;86.80;;;;;;4951592;29;20480;-68
2021/09/11 08:14:02;;;;;;;7.10;5.00;;;18.30;86.60;;;;;;4951009;28;20158;-68
2021/09/11 08:16:28;;;;;;;6.30;5.55;;;18.40;86.40;;;;;;4954057;28;20027;-68
2021/09/11 08:18:54;;;;;;;7.38;4.50;;;18.40;85.50;;;;;;4949942;28;20508;-68
2021/09/11 08:21:19;;;;;;;7.30;5.55;;;18.40;85.70;;;;;;4950630;28;20038;-68
2021/09/11 08:23:46;;;;;;;8.18;4.93;;;18.40;85.60;;;;;;4947619;28;20051;-70
2021/09/11 08:26:12;;;;;;;7.43;5.43;;;18.50;85.50;;;;;;4953295;28;20165;-68
2021/09/11 08:28:38;;;;;;;6.95;5.13;;;18.40;85.80;;;;;;4970563;28;20049;-67
2021/09/11 08:31:04;;;;;;;8.10;5.60;;;18.40;85.00;;;;;;4955250;28;20620;-67
2021/09/11 08:33:29;;;;;;;7.32;5.60;;;18.40;84.80;;;;;;4947396;28;20027;-68
2021/09/11 08:35:55;;;;;;;9.10;5.43;;;18.40;84.90;;;;;;4956860;28;20040;-67
2021/09/11 08:38:21;;;;;;;8.32;5.38;;;18.40;86.50;;;;;;4949622;29;20039;-68
2021/09/11 08:40:47;;;;;;;7.93;5.57;;;18.50;85.30;;;;;;4953427;28;20126;-67
2021/09/11 08:43:17;;;;;;;7.20;5.72;;;18.50;85.40;;;;;;4956032;28;20031;-68
2021/09/11 08:45:43;;;;;;;7.82;5.72;;;18.50;85.00;;;;;;4945297;28;20046;-68
2021/09/11 08:48:09;;;;;;;6.75;5.10;;;18.60;84.90;;;;;;4954634;28;20042;-67
2021/09/11 08:50:35;;;;;;;7.97;5.22;;;18.60;84.60;;;;;;4953843;28;20027;-68
2021/09/11 08:53:01;;;;;;;6.68;5.15;;;18.70;84.90;;;;;;4955999;28;20027;-69
2021/09/11 08:55:27;;;;;;;7.30;5.38;;;18.60;84.00;;;;;;4968523;28;20078;-68
2021/09/11 08:58:04;;;;;;;7.00;5.50;;;18.70;84.50;;;;;;4958676;28;20078;-68
2021/09/11 09:00:42;;;;;;;7.45;5.28;;;18.80;84.50;;;;;;4945153;28;20487;-67
2021/09/11 09:03:26;;;;;;;7.63;5.28;;;18.80;83.70;;;;;;4949201;28;20506;-67
2021/09/11 09:05:52;;;;;;;8.60;5.50;;;18.80;84.10;;;;;;4949025;28;20496;-67
2021/09/11 09:08:30;;;;;;;7.50;5.65;;;18.80;84.50;;;;;;4970684;28;20035;-67
2021/09/11 09:11:12;;;;;;;8.35;5.75;;;18.90;83.90;;;;;;4956024;29;20037;-67
2021/09/11 09:13:53;;;;;;;9.07;6.10;;;18.90;83.80;;;;;;4953582;28;20035;-67
2021/09/11 09:16:19;;;;;;;8.20;6.05;;;19.00;84.10;;;;;;4955139;28;20027;-67
2021/09/11 09:18:45;;;;;;;7.18;5.80;;;18.90;83.30;;;;;;4952772;28;20067;-67
2021/09/11 09:21:22;;;;;;;10.63;6.20;;;19.00;84.10;;;;;;4953670;29;20061;-67
2021/09/11 09:23:50;;;;;;;7.82;5.65;;;19.00;83.20;;;;;;4947928;28;20051;-67
2021/09/11 09:26:16;;;;;;;9.60;5.68;;;19.00;83.20;;;;;;4952350;28;20039;-67
2021/09/11 09:29:07;;;;;;;6.80;5.40;;;19.00;82.80;;;;;;4950201;28;20024;-67
2021/09/11 09:31:33;;;;;;;9.27;5.45;;;19.00;83.20;;;;;;4947256;28;20156;-68
2021/09/11 09:33:59;;;;;;;9.00;5.70;;;19.10;84.50;;;;;;4948167;28;20457;-67
2021/09/11 09:36:54;;;;;;;7.93;5.20;;;19.10;82.20;;;;;;4943845;28;20075;-67
2021/09/11 09:39:20;;;;;;;6.35;4.45;;;19.30;82.90;;;;;;4944001;28;20039;-67
2021/09/11 09:41:52;;;;;;;6.05;4.32;;;19.30;82.10;;;;;;4949517;28;20027;-68
2021/09/11 09:44:20;;;;;;;5.90;4.60;;;19.50;82.50;;;;;;4942377;28;20502;-68
2021/09/11 09:46:48;;;;;;;3.83;3.33;;;19.60;81.20;;;;;;4944643;28;20119;-68
2021/09/11 09:49:22;;;;;;;4.72;3.70;;;19.80;79.80;;;;;;4968149;28;20039;-67
2021/09/11 09:51:49;;;;;;;5.25;3.90;;;19.90;80.40;;;;;;4955736;28;20094;-67
2021/09/11 09:54:16;;;;;;;4.55;3.40;;;20.10;80.10;;;;;;4968113;28;20035;-68
2021/09/11 09:56:42;;;;;;;4.80;3.40;;;20.10;77.90;;;;;;4946633;28;20042;-68
2021/09/11 09:59:09;;;;;;;5.45;3.50;;;20.10;78.90;;;;;;4961260;28;20283;-67
2021/09/11 10:01:36;;;;;;;5.30;4.28;;;20.10;79.20;;;;;;4943812;28;20467;-67
2021/09/11 10:04:16;;;;;;;5.55;4.43;;;20.00;78.60;;;;;;4951471;28;20058;-66
2021/09/11 10:06:44;;;;;;;6.75;4.32;;;19.90;79.20;;;;;;4951854;28;20062;-66
2021/09/11 10:09:13;;;;;;;5.78;4.63;;;19.80;79.10;;;;;;4953686;28;20091;-65
2021/09/11 10:11:53;;;;;;;5.53;4.55;;;19.70;79.30;;;;;;4944612;28;20476;-65
2021/09/11 10:14:21;;;;;;;5.45;4.57;;;19.70;79.60;;;;;;4944182;29;20043;-66
2021/09/11 10:17:01;;;;;;;5.30;3.97;;;19.60;79.50;;;;;;4946009;28;20031;-66
2021/09/11 10:19:29;;;;;;;5.30;3.80;;;19.60;80.20;;;;;;4947068;28;20042;-66
2021/09/11 10:22:22;;;;;;;5.68;4.35;;;19.50;81.30;;;;;;4945735;28;20042;-66
2021/09/11 10:25:04;;;;;;;5.57;3.65;;;19.40;81.60;;;;;;4943623;28;20513;-66
2021/09/11 10:27:38;;;;;;;5.28;4.00;;;19.30;82.20;;;;;;4944689;29;20495;-66
2021/09/11 10:30:14;;;;;;;6.82;4.03;;;19.30;82.70;;;;;;4946090;29;20054;-67
2021/09/11 10:32:49;;;;;;;4.78;3.67;;;19.30;83.80;;;;;;4946138;28;21007;-66
2021/09/11 10:35:23;;;;;;;3.92;3.35;;;19.20;83.30;;;;;;4946601;29;20031;-66
2021/09/11 10:37:52;;;;;;;3.25;2.95;;;19.20;83.40;;;;;;4948077;28;20027;-67
2021/09/11 10:40:35;;;;;;;4.80;3.00;;;19.30;83.50;;;;;;4943948;28;20043;-66
2021/09/11 10:43:08;;;;;;;4.38;3.15;;;19.20;83.40;;;;;;4944291;29;20501;-66
2021/09/11 10:45:38;;;;;;;3.15;2.85;;;19.30;83.70;;;;;;4944560;28;20039;-66
2021/09/11 10:48:27;;;;;;;3.92;3.03;;;19.30;84.10;;;;;;4946278;29;20106;-67
2021/09/11 10:50:53;;;;;;;3.67;3.35;;;19.30;84.40;;;;;;4943637;28;20062;-66
2021/09/11 10:53:23;;;;;;;5.10;2.88;;;19.30;83.80;;;;;;4945876;29;20067;-67
2021/09/11 10:55:49;;;;;;;10.57;5.35;;;19.30;83.80;;;;;;4945870;28;20074;-68
2021/09/11 10:58:23;;;;;;;4.57;3.38;;;19.30;84.10;;;;;;4942415;28;20031;-67
2021/09/11 11:00:59;;;;;;;5.38;3.40;;;19.30;84.60;;;;;;4942583;28;20138;-67
2021/09/11 11:03:25;;;;;;;3.92;3.05;;;19.40;84.70;;;;;;4941448;28;20051;-67
2021/09/11 11:06:02;;;;;;;6.03;3.60;;;19.40;84.70;;;;;;4941379;29;20035;-67
2021/09/11 11:08:32;;;;;;;4.30;3.50;;;19.50;84.70;;;;;;4939377;28;20046;-67
2021/09/11 11:11:02;;;;;;;6.10;3.65;;;19.60;84.80;;;;;;4942758;28;20041;-67
2021/09/11 11:13:27;;;;;;;4.95;3.95;;;19.70;84.60;;;;;;4940138;28;20373;-67
2021/09/11 11:15:57;;;;;;;3.88;3.17;;;19.80;85.00;;;;;;4940028;28;20031;-67
2021/09/11 11:18:27;;;;;;;3.53;3.15;;;19.80;83.90;;;;;;4941423;28;20104;-67
2021/09/11 11:20:53;;;;;;;2.90;2.60;;;19.90;82.90;;;;;;4957101;28;20038;-68
2021/09/11 11:23:20;;;;;;;3.03;2.72;;;19.80;82.30;;;;;;4946756;28;20047;-67
2021/09/11 11:25:50;;;;;;;3.30;2.80;;;19.80;81.90;;;;;;4952372;28;20035;-68
2021/09/11 11:28:18;;;;;;;2.80;2.60;;;19.90;82.70;;;;;;4951218;29;20051;-68
2021/09/11 11:30:44;;;;;;;2.70;2.38;;;19.90;81.90;;;;;;4961752;28;20035;-67
2021/09/11 11:33:11;;;;;;;4.50;2.85;;;19.90;82.10;;;;;;4945170;28;20129;-67
2021/09/11 11:35:41;;;;;;;3.28;2.70;;;19.90;80.90;;;;;;4949263;28;20034;-68
2021/09/11 11:38:07;;;;;;;3.17;2.70;;;20.00;81.30;;;;;;4952438;28;20031;-67
2021/09/11 11:40:33;;;;;;;3.25;2.80;;;20.00;81.40;;;;;;4953179;28;20369;-68
2021/09/11 11:43:04;;;;;;;2.65;2.42;;;20.00;81.00;;;;;;4942305;28;20157;-67
2021/09/11 11:45:30;;;;;;;2.00;1.90;;;20.20;82.00;;;;;;4943220;28;20102;-67
2021/09/11 11:48:13;;;;;;;2.47;2.28;;;20.20;81.40;;;;;;4942084;28;20141;-68
2021/09/11 11:50:41;;;;;;;2.65;2.42;;;20.30;79.70;;;;;;4946253;28;20516;-67
2021/09/11 11:53:14;;;;;;;3.95;3.05;;;20.30;79.20;;;;;;4953274;28;20368;-67
2021/09/11 11:55:45;;;;;;;3.33;3.00;;;20.30;78.60;;;;;;4948758;28;20101;-67
2021/09/11 11:58:15;;;;;;;3.58;2.70;;;20.30;78.70;;;;;;4948901;28;20027;-67
2021/09/11 12:00:43;;;;;;;3.15;2.35;;;20.40;80.10;;;;;;4949961;28;22433;-67
2021/09/11 12:03:35;;;;;;;3.90;2.58;;;20.40;79.70;;;;;;4948773;28;20038;-67
2021/09/11 12:06:02;;;;;;;2.83;2.30;;;20.40;79.00;;;;;;4947605;28;20078;-67
2021/09/11 12:08:28;;;;;;;4.03;2.77;;;20.30;78.90;;;;;;4950565;28;20035;-67
2021/09/11 12:10:56;;;;;;;3.38;2.50;;;20.40;78.60;;;;;;4943293;28;20038;-67
2021/09/11 12:13:22;;;;;;;3.22;2.40;;;20.30;78.00;;;;;;4951530;28;20035;-67
2021/09/11 12:15:49;;;;;;;2.53;2.30;;;20.20;78.60;;;;;;4951150;28;20039;-67
2021/09/11 12:18:16;;;;;;;4.05;2.40;;;20.20;79.40;;;;;;4951928;29;20199;-67
2021/09/11 12:20:53;;;;;;;3.30;2.55;;;20.20;79.00;;;;;;4950112;28;20086;-67
2021/09/11 12:23:28;;;;;;;2.65;2.17;;;20.20;79.20;;;;;;4947928;28;20126;-68
2021/09/11 12:26:04;;;;;;;2.95;2.63;;;20.20;79.50;;;;;;4947365;28;20051;-67
2021/09/11 12:28:35;;;;;;;3.22;2.60;;;20.30;79.70;;;;;;4949106;28;20520;-68
2021/09/11 12:31:25;;;;;;;3.50;2.42;;;20.30;80.00;;;;;;4944301;28;20027;-68
2021/09/11 12:33:53;;;;;;;3.33;2.58;;;20.30;81.50;;;;;;4939818;28;20043;-68
2021/09/11 12:36:28;;;;;;;2.88;2.38;;;20.30;79.20;;;;;;4940836;28;20106;-68
2021/09/11 12:38:55;;;;;;;2.50;2.28;;;20.40;79.00;;;;;;4942656;28;20042;-68
2021/09/11 12:41:22;;;;;;;2.85;2.25;;;20.40;78.90;;;;;;4950911;28;20106;-67
2021/09/11 12:43:48;;;;;;;2.55;2.35;;;20.40;80.80;;;;;;4948722;28;20043;-67